Portada
METAR-TAF:

METAR-TAF

Aeropuertos :

Aeropuerto Internacional Gobernador Francisco Gabrielli

Mendoza, Argentina

latitud: 32-50S, longitud: 068-47W, altitud: 705 m

Observación

El informe se hizo hace 22 minutos, a las 01:00 UTC
Viento 4 kt del noroeste
Temperatura 6°C
Humedad 49%
Presión 1033 hPa
Visibilidad 10 km o más
sin nubes por debajo de 1500 m y sin presencia de cumulonimbus.

METAR: SAME 200100Z 32004KT CAVOK 06/M04 Q1033

Hora: 22:22 (01:22 UTC)

Pronóstico

El informe se hizo hace 2 horas y 22 minutos, a las 23:00 UTC
Pronóstico válido del 20 a las 00 UTC al 20 a las 24 UTC
Viento 5 kt del sur
Visibilidad 10 km o más
Nubes dispersas a una altura de 8000 ft
Evolucionando progresivamente
del 20 a las 15 UTC al 20 a las 17 UTC
Viento 5 kt del noreste
Visibilidad 10 km o más
sin nubes por debajo de 1500 m y sin presencia de cumulonimbus.

TAF: SAME 192300Z 2000/2024 18005KT 9999 SCTR040 SCT080 TNM01/2010Z TX15/2020Z BECMG 2015/2017 05005KT CAVOK

Observaciones y pronósticos meteorológicos de más de 4000 aeropuertos (mensajes METAR y TAF).

Los puntos amarillos y rojos representan las estaciones disponibles.

Ponga el ratón en el punto deseado para ver el nombre de la estación.

Haga clic para ver las observaciones y los pronósticos meteorológicos.

Para cambiar el mapa : haga clic en los botones verdes con una cruz de color negro para hacer un zoom, en el botón verde con un guión para alejar o en las flechas verdes para mapas adyacentes.


METAR-TAF: